Time;durP1;ratioP1;P1;durP2;ratioP2;P2;SDS_P1;SDS_P2;PMS_P1;PMS_P2;Temp;Humidity;BMP_temperature;BMP_pressure;BME280_temperature;BME280_humidity;BME280_pressure;Samples;Min_cycle;Max_cycle;Signal;HPM_P1;HPM_P2
2021/12/06 00:00:37;;;;;;;46.70;21.42;;;;;;;2.29;92.46;101160.28;5034993;28;20081;-72
2021/12/06 00:03:07;;;;;;;44.90;20.20;;;;;;;2.24;91.72;101163.44;5029517;28;20021;-72
2021/12/06 00:05:34;;;;;;;46.92;20.75;;;;;;;2.21;91.36;101163.25;5056871;28;20327;-72
2021/12/06 00:07:59;;;;;;;45.20;21.00;;;;;;;2.17;91.32;101168.13;5025563;28;20034;-72
2021/12/06 00:10:25;;;;;;;47.88;20.88;;;;;;;2.14;91.36;101166.25;5032132;28;20055;-72
2021/12/06 00:12:50;;;;;;;48.33;20.52;;;;;;;2.13;91.80;101164.47;5027798;28;20094;-72
2021/12/06 00:15:16;;;;;;;46.80;21.15;;;;;;;2.12;91.96;101170.41;5030208;28;20025;-72
2021/12/06 00:17:41;;;;;;;53.88;23.10;;;;;;;2.12;92.18;101166.97;5054536;28;20021;-72
2021/12/06 00:20:10;;;;;;;51.65;22.60;;;;;;;2.11;92.41;101168.63;5035548;28;20021;-72
2021/12/06 00:22:35;;;;;;;55.28;23.90;;;;;;;2.11;92.84;101178.91;5025798;28;20127;-72
2021/12/06 00:25:03;;;;;;;52.80;22.77;;;;;;;2.11;92.59;101185.72;5036191;28;20144;-72
2021/12/06 00:27:29;;;;;;;52.00;23.80;;;;;;;2.12;93.12;101182.38;5027265;28;20042;-71
2021/12/06 00:29:55;;;;;;;53.88;23.27;;;;;;;2.14;93.19;101191.94;5034555;28;20029;-72
2021/12/06 00:32:21;;;;;;;53.80;23.88;;;;;;;2.15;93.44;101188.59;5030873;28;20045;-72
2021/12/06 00:34:47;;;;;;;56.22;24.05;;;;;;;2.15;93.42;101191.16;5029237;28;20026;-72
2021/12/06 00:37:23;;;;;;;56.10;24.20;;;;;;;2.15;93.61;101196.31;5033341;28;20080;-72
2021/12/06 00:39:54;;;;;;;56.65;23.60;;;;;;;2.15;93.34;101201.44;5029054;28;20056;-72
2021/12/06 00:42:23;;;;;;;54.55;23.05;;;;;;;2.15;93.53;101201.44;5055269;28;20288;-72
2021/12/06 00:44:49;;;;;;;57.00;24.60;;;;;;;2.15;93.47;101204.00;5030390;28;20284;-72
2021/12/06 00:47:14;;;;;;;56.15;25.70;;;;;;;2.17;93.62;101207.59;5035194;28;20092;-72
2021/12/06 00:49:40;;;;;;;58.53;24.90;;;;;;;2.20;94.13;101210.34;5034379;28;20188;-72
2021/12/06 00:52:07;;;;;;;59.17;25.15;;;;;;;2.22;93.95;101215.59;5027142;28;20042;-72
2021/12/06 00:54:35;;;;;;;69.57;26.85;;;;;;;2.23;94.39;101218.25;5037032;28;20029;-72
2021/12/06 00:57:05;;;;;;;62.90;26.38;;;;;;;2.24;94.32;101224.28;5024198;28;20093;-72
2021/12/06 00:59:32;;;;;;;60.72;26.25;;;;;;;2.26;94.18;101227.84;5065323;28;20033;-72
2021/12/06 01:02:00;;;;;;;63.22;26.25;;;;;;;2.29;94.89;101242.56;5028938;28;20026;-72
2021/12/06 01:04:28;;;;;;;69.93;27.45;;;;;;;2.31;94.62;101246.13;5024515;28;20033;-72
2021/12/06 01:06:53;;;;;;;64.70;26.95;;;;;;;2.32;94.64;101245.31;5053192;28;20079;-72
2021/12/06 01:09:18;;;;;;;65.10;27.63;;;;;;;2.30;94.59;101244.34;5053483;28;20284;-72
2021/12/06 01:11:44;;;;;;;65.18;27.13;;;;;;;2.34;94.71;101256.59;5030452;28;20282;-72
2021/12/06 01:14:09;;;;;;;62.85;26.15;;;;;;;2.35;95.11;101258.41;5028922;28;20018;-72
2021/12/06 01:16:34;;;;;;;59.90;24.52;;;;;;;2.34;95.05;101248.88;5037639;28;20335;-72
2021/12/06 01:18:59;;;;;;;54.85;25.02;;;;;;;2.36;94.44;101260.16;5032892;28;20268;-72
2021/12/06 01:21:42;;;;;;;58.38;25.58;;;;;;;2.35;94.76;101251.56;5035491;28;20100;-72
2021/12/06 01:24:09;;;;;;;62.85;25.70;;;;;;;2.36;95.04;101249.88;5038462;28;20100;-72
2021/12/06 01:27:10;;;;;;;61.88;26.30;;;;;;;2.36;94.67;101252.44;5039924;28;20037;-72
2021/12/06 01:32:00;;;;;;;66.20;27.33;;;;;;;2.39;94.92;101255.19;5033539;28;20041;-72
2021/12/06 01:39:54;;;;;;;68.82;27.35;;;;;;;2.44;95.63;101256.38;5030119;28;20032;-72
2021/12/06 01:42:19;;;;;;;70.50;28.48;;;;;;;2.43;95.51;101264.88;5032445;28;20049;-72
2021/12/06 01:44:48;;;;;;;65.20;27.00;;;;;;;2.46;95.59;101271.91;5037055;28;20033;-72
2021/12/06 01:47:23;;;;;;;68.22;27.17;;;;;;;2.46;95.67;101277.06;5028914;28;20058;-72
2021/12/06 01:49:55;;;;;;;67.53;27.27;;;;;;;2.46;95.37;101283.09;5032926;28;20084;-72
2021/12/06 01:52:28;;;;;;;72.72;29.60;;;;;;;2.46;95.36;101272.78;5030278;28;20029;-72
2021/12/06 01:54:54;;;;;;;67.00;26.52;;;;;;;2.46;95.48;101277.94;5029148;28;20034;-72
2021/12/06 01:57:21;;;;;;;72.70;28.00;;;;;;;2.47;95.57;101279.72;5067921;28;20269;-72
2021/12/06 01:59:47;;;;;;;70.63;27.55;;;;;;;2.48;95.82;101284.09;5042557;28;20217;-72
2021/12/06 02:02:15;;;;;;;68.38;28.20;;;;;;;2.49;95.36;101280.72;5031863;28;20092;-72
2021/12/06 02:04:42;;;;;;;70.13;28.48;;;;;;;2.50;95.29;101284.19;5035943;28;20036;-72
2021/12/06 02:07:14;;;;;;;66.38;27.92;;;;;;;2.49;95.38;101287.53;5055632;28;21143;-72
2021/12/06 02:09:40;;;;;;;70.28;28.92;;;;;;;2.50;95.67;101284.19;5034720;28;20276;-72
2021/12/06 02:12:06;;;;;;;71.20;28.08;;;;;;;2.50;95.84;101287.63;5040696;28;20045;-72
2021/12/06 02:14:55;;;;;;;71.85;29.02;;;;;;;2.51;95.39;101283.41;5068341;28;20093;-72
2021/12/06 02:17:26;;;;;;;69.22;28.02;;;;;;;2.53;95.71;101284.38;5031160;28;20076;-72
2021/12/06 02:20:08;;;;;;;72.22;28.33;;;;;;;2.54;95.32;101293.88;5032833;28;20029;-72
2021/12/06 02:22:37;;;;;;;72.32;28.20;;;;;;;2.54;95.66;101292.19;5030297;28;20029;-72
2021/12/06 02:25:05;;;;;;;69.03;29.23;;;;;;;2.54;95.79;101297.31;5067843;28;20021;-72
2021/12/06 02:27:31;;;;;;;72.55;28.15;;;;;;;2.54;95.78;101294.75;5033054;28;20060;-72
2021/12/06 02:30:00;;;;;;;74.20;28.35;;;;;;;2.54;95.74;101296.44;5033413;28;20022;-72
2021/12/06 02:32:26;;;;;;;70.88;28.38;;;;;;;2.54;95.63;101302.47;5032205;28;20315;-72
2021/12/06 02:34:54;;;;;;;80.55;30.15;;;;;;;2.52;95.42;101304.06;5032429;28;20025;-72
2021/12/06 02:37:28;;;;;;;79.32;28.95;;;;;;;2.51;95.68;101304.84;5028594;28;20036;-72
2021/12/06 02:39:54;;;;;;;77.13;30.27;;;;;;;2.52;95.63;101314.34;5033573;28;20030;-72
2021/12/06 02:42:20;;;;;;;74.97;29.95;;;;;;;2.51;95.52;101307.44;5034123;28;20100;-72
2021/12/06 02:44:46;;;;;;;68.97;28.08;;;;;;;2.53;95.47;101316.13;5032027;28;20068;-72
2021/12/06 02:47:12;;;;;;;75.63;29.90;;;;;;;2.54;95.83;101323.06;5028051;28;20068;-72
2021/12/06 02:49:38;;;;;;;67.43;27.42;;;;;;;2.54;95.60;101323.06;5039314;28;20255;-72
2021/12/06 02:52:05;;;;;;;67.90;27.65;;;;;;;2.54;95.77;101325.63;5031092;28;20040;-72
2021/12/06 02:54:32;;;;;;;61.67;25.73;;;;;;;2.54;95.96;101327.31;5037834;28;20355;-72
2021/12/06 02:57:19;;;;;;;65.93;26.65;;;;;;;2.54;95.36;101328.19;5032914;28;20071;-72
2021/12/06 02:59:47;;;;;;;64.55;26.00;;;;;;;2.54;95.73;101328.19;5034816;28;20108;-72
2021/12/06 03:02:19;;;;;;;68.57;27.27;;;;;;;2.53;95.89;101334.13;5035271;28;20029;-72
2021/12/06 03:04:46;;;;;;;61.70;25.98;;;;;;;2.54;95.90;101328.19;5036684;28;20029;-72
2021/12/06 03:07:15;;;;;;;66.07;26.60;;;;;;;2.54;95.52;101338.47;5029854;28;20035;-72
2021/12/06 03:09:40;;;;;;;65.32;26.60;;;;;;;2.55;95.69;101339.38;5029618;28;20389;-72
2021/12/06 03:12:13;;;;;;;60.33;25.17;;;;;;;2.54;95.12;101340.19;5030447;28;20089;-72
2021/12/06 03:14:45;;;;;;;65.65;26.38;;;;;;;2.52;95.27;101339.16;5033044;28;20044;-72
2021/12/06 03:17:13;;;;;;;63.38;26.65;;;;;;;2.50;95.33;101331.34;5066115;28;20033;-72
2021/12/06 03:19:39;;;;;;;61.65;26.27;;;;;;;2.51;95.42;101342.56;5036783;28;20021;-72
2021/12/06 03:22:07;;;;;;;64.35;26.13;;;;;;;2.51;95.46;101337.41;5036329;28;20057;-72
2021/12/06 03:24:32;;;;;;;67.03;26.40;;;;;;;2.50;95.19;101333.06;5032853;28;20029;-72
2021/12/06 03:26:59;;;;;;;69.00;28.08;;;;;;;2.49;95.61;101332.19;5033345;28;20093;-73
2021/12/06 03:29:25;;;;;;;79.68;29.17;;;;;;;2.49;95.70;101337.31;5029951;28;20033;-73
2021/12/06 03:31:51;;;;;;;75.97;29.40;;;;;;;2.48;96.12;101335.53;5037346;28;20326;-73
2021/12/06 03:34:18;;;;;;;81.20;28.95;;;;;;;2.49;95.59;101334.75;5034997;28;20033;-73
2021/12/06 03:36:44;;;;;;;77.18;28.50;;;;;;;2.51;95.88;101342.56;5036845;28;20176;-73
2021/12/06 03:39:20;;;;;;;70.03;27.25;;;;;;;2.51;95.83;101343.44;5063532;28;20071;-72
2021/12/06 03:41:47;;;;;;;68.55;28.20;;;;;;;2.51;96.21;101347.69;5031887;28;20272;-73
2021/12/06 03:44:12;;;;;;;73.10;28.60;;;;;;;2.52;95.89;101340.09;5026543;28;20268;-73
2021/12/06 03:46:39;;;;;;;71.97;28.05;;;;;;;2.52;95.76;101339.16;5032359;28;20025;-72
2021/12/06 03:49:14;;;;;;;64.47;25.75;;;;;;;2.52;95.83;101345.22;5032108;28;20018;-72
2021/12/06 03:51:41;;;;;;;63.53;25.50;;;;;;;2.50;95.71;101344.22;5031038;28;20044;-72
2021/12/06 03:54:08;;;;;;;58.67;24.60;;;;;;;2.51;96.02;101346.00;5028497;28;20021;-72
2021/12/06 03:56:40;;;;;;;60.80;24.75;;;;;;;2.50;95.75;101351.06;5030770;28;20040;-72
2021/12/06 03:59:06;;;;;;;62.05;25.42;;;;;;;2.48;95.30;101342.34;5036385;28;20084;-72
2021/12/06 04:01:32;;;;;;;64.78;26.98;;;;;;;2.48;95.75;101343.25;5026414;28;20117;-72
2021/12/06 04:03:59;;;;;;;76.50;29.33;;;;;;;2.49;96.07;101349.28;5063779;28;20073;-72
2021/12/06 04:06:25;;;;;;;72.22;27.92;;;;;;;2.47;95.53;101345.72;5028857;28;20021;-72
2021/12/06 04:08:50;;;;;;;71.18;28.00;;;;;;;2.48;95.53;101342.34;5030328;28;20190;-72
2021/12/06 04:11:17;;;;;;;70.68;26.65;;;;;;;2.46;95.73;101349.94;5028593;28;20040;-72
2021/12/06 04:13:42;;;;;;;78.07;29.35;;;;;;;2.47;96.13;101356.00;5030661;28;20021;-72
2021/12/06 04:16:08;;;;;;;84.72;29.60;;;;;;;2.49;95.90;101359.56;5033016;28;20045;-72
2021/12/06 04:18:34;;;;;;;78.15;28.85;;;;;;;2.49;95.58;101363.03;5029310;28;20020;-72
2021/12/06 04:20:59;;;;;;;71.90;28.58;;;;;;;2.50;95.54;101361.34;5030221;28;20264;-72
2021/12/06 04:23:25;;;;;;;76.03;28.73;;;;;;;2.50;96.11;101358.78;5030494;28;20251;-72
2021/12/06 04:25:50;;;;;;;81.18;31.02;;;;;;;2.49;95.62;101350.19;5029266;28;20018;-72
2021/12/06 04:28:19;;;;;;;68.07;28.25;;;;;;;2.48;95.73;101358.69;5031455;28;20072;-72
2021/12/06 04:30:45;;;;;;;73.47;27.65;;;;;;;2.44;95.59;101356.69;5033292;28;20014;-72
2021/12/06 04:33:10;;;;;;;62.20;25.42;;;;;;;2.41;95.51;101359.06;5035376;28;20024;-72
2021/12/06 04:35:37;;;;;;;62.47;24.48;;;;;;;2.38;95.74;101351.16;5038163;28;20017;-72
2021/12/06 04:38:03;;;;;;;61.70;25.52;;;;;;;2.37;95.52;101359.66;5029953;28;20033;-72
2021/12/06 04:40:29;;;;;;;61.83;26.20;;;;;;;2.34;95.16;101372.31;5032831;28;20034;-72
2021/12/06 04:42:56;;;;;;;69.35;27.38;;;;;;;2.32;94.83;101366.16;5033838;28;20364;-72
2021/12/06 04:45:21;;;;;;;71.40;27.60;;;;;;;2.28;94.73;101366.78;5031449;28;20056;-72
2021/12/06 04:47:48;;;;;;;75.78;28.65;;;;;;;2.24;94.76;101356.28;5030234;28;20280;-72
2021/12/06 04:50:14;;;;;;;73.07;27.23;;;;;;;2.20;94.69;101364.59;5035071;28;20175;-72
2021/12/06 04:52:41;;;;;;;74.63;28.70;;;;;;;2.17;94.54;101366.97;5032383;28;20076;-72
2021/12/06 04:55:24;;;;;;;84.65;30.35;;;;;;;2.17;95.16;101372.13;5030399;28;20092;-72
2021/12/06 04:57:49;;;;;;;67.18;25.88;;;;;;;2.12;94.16;101375.16;5054609;28;20094;-72
2021/12/06 05:00:21;;;;;;;70.43;27.08;;;;;;;2.08;94.56;101379.19;5035508;28;20030;-72
2021/12/06 05:02:46;;;;;;;66.43;25.85;;;;;;;2.02;94.29;101377.09;5045976;28;20026;-72
2021/12/06 05:05:35;;;;;;;70.30;26.63;;;;;;;1.98;93.89;101384.53;5026193;28;20080;-72
2021/12/06 05:08:21;;;;;;;70.40;26.80;;;;;;;1.90;93.81;101377.19;5031065;28;20118;-72
2021/12/06 05:10:47;;;;;;;72.85;27.08;;;;;;;1.86;93.94;101382.91;5030500;28;20075;-72
2021/12/06 05:13:13;;;;;;;71.75;25.90;;;;;;;1.85;94.17;101386.25;5028794;28;20116;-72
2021/12/06 05:15:38;;;;;;;68.75;25.88;;;;;;;1.81;93.19;101385.94;5033827;28;20219;-72
2021/12/06 05:18:04;;;;;;;68.00;27.13;;;;;;;1.76;93.20;101387.34;5031095;28;20021;-72
2021/12/06 05:20:30;;;;;;;64.05;26.50;;;;;;;1.70;92.97;101387.81;5053039;28;20328;-72
2021/12/06 05:22:55;;;;;;;68.82;26.35;;;;;;;1.65;92.70;101394.28;5065175;28;20187;-72
2021/12/06 05:25:23;;;;;;;61.78;25.95;;;;;;;1.62;93.30;101399.22;5036503;28;20264;-72
2021/12/06 05:27:49;;;;;;;69.35;27.33;;;;;;;1.59;92.83;101404.16;5032837;28;20283;-72
2021/12/06 05:30:15;;;;;;;63.15;24.38;;;;;;;1.56;93.00;101405.75;5028492;28;20288;-72
2021/12/06 05:32:42;;;;;;;77.45;26.38;;;;;;;1.50;93.05;101400.16;5033861;28;20068;-72
2021/12/06 05:35:10;;;;;;;68.53;24.58;;;;;;;1.47;93.57;101404.19;5033033;28;20029;-72
2021/12/06 05:37:56;;;;;;;66.72;24.90;;;;;;;1.42;93.06;101398.75;5059563;28;20070;-72
2021/12/06 05:40:24;;;;;;;56.90;23.05;;;;;;;1.34;92.93;101397.31;5028980;28;20300;-72
2021/12/06 05:42:51;;;;;;;175.60;25.75;;;;;;;1.29;93.31;101403.78;5030336;28;20041;-72
2021/12/06 05:45:19;;;;;;;111.30;21.80;;;;;;;1.24;93.04;101403.47;5060202;28;20057;-72
2021/12/06 05:47:45;;;;;;;90.75;23.13;;;;;;;1.18;93.04;101396.22;5031325;28;20046;-72
2021/12/06 05:50:12;;;;;;;133.98;25.88;;;;;;;1.13;93.52;101394.13;5052716;28;20032;-72
2021/12/06 05:52:39;;;;;;;155.97;24.03;;;;;;;1.08;93.97;101396.38;5033802;28;20095;-72
2021/12/06 05:55:07;;;;;;;76.00;24.15;;;;;;;1.03;93.92;101397.75;5026837;28;20030;-72
2021/12/06 05:57:33;;;;;;;87.55;24.30;;;;;;;1.01;93.86;101400.19;5069105;28;20010;-72
2021/12/06 05:59:58;;;;;;;99.57;26.02;;;;;;;1.00;94.90;101400.06;5033468;28;20029;-72
2021/12/06 06:02:24;;;;;;;93.75;25.52;;;;;;;0.97;94.80;101399.84;5036307;28;20026;-72
2021/12/06 06:04:49;;;;;;;135.80;27.23;;;;;;;0.94;94.40;101415.94;5036718;28;20241;-72
2021/12/06 06:07:14;;;;;;;114.45;26.02;;;;;;;0.88;94.31;101409.47;5035028;28;20053;-72
2021/12/06 06:09:40;;;;;;;87.60;25.90;;;;;;;0.85;95.25;101416.19;5029204;28;20164;-72
2021/12/06 06:12:06;;;;;;;83.15;25.63;;;;;;;0.84;94.81;101422.06;5034437;28;20091;-72
2021/12/06 06:14:32;;;;;;;87.05;25.77;;;;;;;0.81;95.18;101426.06;5031487;28;20911;-72
2021/12/06 06:17:07;;;;;;;100.32;25.98;;;;;;;0.81;94.86;101431.22;5034642;28;20033;-72
2021/12/06 06:19:32;;;;;;;106.22;28.55;;;;;;;0.81;94.48;101433.78;5036031;28;20214;-72
2021/12/06 06:21:58;;;;;;;118.18;28.63;;;;;;;0.80;95.50;101438.03;5031533;28;20283;-72
2021/12/06 06:24:23;;;;;;;76.47;27.52;;;;;;;0.81;95.53;101437.25;5068258;28;20049;-72
2021/12/06 06:26:48;;;;;;;89.82;28.50;;;;;;;0.85;95.68;101441.84;5029313;28;20132;-72
2021/12/06 06:29:14;;;;;;;98.13;30.35;;;;;;;0.89;95.56;101435.22;5032180;28;20037;-72
2021/12/06 06:31:39;;;;;;;98.07;30.13;;;;;;;0.92;96.20;101445.72;5034898;28;20332;-72
2021/12/06 06:34:05;;;;;;;108.05;31.40;;;;;;;0.95;96.25;101437.34;5033196;28;20076;-72
2021/12/06 06:36:31;;;;;;;96.35;30.00;;;;;;;1.00;95.79;101436.91;5029745;28;20040;-72
2021/12/06 06:38:56;;;;;;;111.38;32.72;;;;;;;1.02;96.46;101442.13;5035137;28;20021;-72
2021/12/06 06:41:21;;;;;;;88.32;32.20;;;;;;;1.06;96.92;101441.59;5037846;28;20069;-72
2021/12/06 06:43:47;;;;;;;124.30;32.40;;;;;;;1.11;96.63;101435.09;5033302;28;20105;-72
2021/12/06 06:46:12;;;;;;;114.35;31.83;;;;;;;1.13;96.85;101446.38;5030261;28;20032;-72
2021/12/06 06:48:38;;;;;;;88.35;31.02;;;;;;;1.15;96.92;101447.34;5032732;28;20759;-72
2021/12/06 06:51:03;;;;;;;93.40;30.58;;;;;;;1.17;96.74;101445.81;5034669;28;20096;-72
2021/12/06 06:53:29;;;;;;;95.28;30.08;;;;;;;1.18;96.87;101439.88;5031218;28;20238;-72
2021/12/06 06:55:55;;;;;;;91.95;29.80;;;;;;;1.22;96.71;101438.44;5035652;28;20109;-72
2021/12/06 06:58:21;;;;;;;99.07;30.20;;;;;;;1.25;97.36;101448.03;5037290;28;20049;-72
2021/12/06 07:00:47;;;;;;;120.80;32.28;;;;;;;1.25;97.50;101448.03;5036753;28;20021;-72
2021/12/06 07:03:13;;;;;;;98.88;30.50;;;;;;;1.26;97.63;101448.13;5036915;28;20076;-73
2021/12/06 07:05:38;;;;;;;87.55;31.48;;;;;;;1.28;97.11;101453.38;5029065;28;20049;-72
2021/12/06 07:08:04;;;;;;;96.10;30.00;;;;;;;1.30;96.98;101455.25;5056983;28;20048;-73
2021/12/06 07:10:30;;;;;;;110.40;32.58;;;;;;;1.32;97.41;101452.81;5036829;28;20057;-73
2021/12/06 07:12:56;;;;;;;98.57;31.25;;;;;;;1.34;97.88;101456.38;5033524;28;20026;-73
2021/12/06 07:15:27;;;;;;;109.13;31.83;;;;;;;1.35;97.98;101463.31;5032565;28;20049;-73
2021/12/06 07:17:52;;;;;;;105.32;32.50;;;;;;;1.37;97.60;101459.16;5035947;28;20045;-72
2021/12/06 07:20:19;;;;;;;120.35;32.67;;;;;;;1.39;98.03;101465.28;5038147;28;20026;-72
2021/12/06 07:22:47;;;;;;;112.80;31.85;;;;;;;1.40;98.12;101474.75;5037629;28;20097;-73
2021/12/06 07:25:14;;;;;;;117.90;32.50;;;;;;;1.40;98.04;101469.63;5062713;28;20013;-72
2021/12/06 07:27:39;;;;;;;121.80;32.47;;;;;;;1.43;97.76;101469.84;5036190;28;20037;-72
2021/12/06 07:30:06;;;;;;;119.28;32.33;;;;;;;1.44;98.19;101475.91;5030333;28;20725;-72
2021/12/06 07:32:32;;;;;;;132.23;32.80;;;;;;;1.44;98.48;101469.06;5028652;28;20075;-72
2021/12/06 07:34:57;;;;;;;122.15;35.65;;;;;;;1.46;98.52;101480.31;5063144;28;20014;-72
2021/12/06 07:37:22;;;;;;;123.00;34.05;;;;;;;1.46;98.77;101485.47;5067682;28;20150;-72
2021/12/06 07:39:48;;;;;;;117.57;32.85;;;;;;;1.46;98.71;101490.59;5063113;28;20163;-72
2021/12/06 07:42:14;;;;;;;109.72;33.33;;;;;;;1.47;98.62;101486.38;5031526;28;20107;-72
2021/12/06 07:44:41;;;;;;;117.10;34.17;;;;;;;1.48;98.64;101486.47;5039180;28;20034;-72
2021/12/06 07:47:08;;;;;;;120.10;34.20;;;;;;;1.50;98.68;101481.44;5031947;28;20039;-72
2021/12/06 07:49:33;;;;;;;133.00;35.00;;;;;;;1.52;98.78;101480.78;5030805;28;20091;-72
2021/12/06 07:51:59;;;;;;;126.45;34.55;;;;;;;1.54;99.01;101468.94;5037822;28;20049;-72
2021/12/06 07:54:24;;;;;;;117.82;35.85;;;;;;;1.56;98.88;101469.94;5029263;28;20030;-72
2021/12/06 07:56:50;;;;;;;122.15;34.28;;;;;;;1.59;99.01;101460.66;5033862;28;20180;-72
2021/12/06 07:59:15;;;;;;;132.95;36.55;;;;;;;1.60;99.11;101459.88;5040786;28;20023;-72
2021/12/06 08:01:40;;;;;;;101.72;35.22;;;;;;;1.62;99.04;101466.88;5029488;28;20044;-72
2021/12/06 08:04:06;;;;;;;123.07;35.33;;;;;;;1.64;98.93;101456.75;5033299;28;20028;-72
2021/12/06 08:06:32;;;;;;;124.18;34.65;;;;;;;1.64;99.01;101449.03;5058571;28;20038;-72
2021/12/06 08:08:58;;;;;;;113.72;36.30;;;;;;;1.66;99.22;101455.16;5034798;28;20049;-72
2021/12/06 08:11:25;;;;;;;111.53;35.33;;;;;;;1.69;99.60;101447.66;5027526;28;20076;-72
2021/12/06 08:13:54;;;;;;;113.63;36.42;;;;;;;1.71;99.06;101456.38;5032735;28;20079;-72
2021/12/06 08:16:22;;;;;;;117.28;36.80;;;;;;;1.71;99.24;101451.25;5065738;28;20022;-72
2021/12/06 08:18:48;;;;;;;132.18;39.75;;;;;;;1.73;99.02;101454.81;5036199;28;20048;-72
2021/12/06 08:21:15;;;;;;;140.95;41.22;;;;;;;1.75;99.32;101450.66;5036777;28;20025;-72
2021/12/06 08:23:41;;;;;;;133.75;40.40;;;;;;;1.79;99.20;101457.78;5037780;28;20218;-72
2021/12/06 08:26:09;;;;;;;137.52;41.58;;;;;;;1.82;99.74;101455.41;5036419;28;20061;-72
2021/12/06 08:28:35;;;;;;;143.15;41.42;;;;;;;1.84;99.54;101451.28;5036520;28;20324;-73
2021/12/06 08:31:03;;;;;;;129.40;39.45;;;;;;;1.86;99.51;101457.41;5031098;28;20032;-73
2021/12/06 08:33:28;;;;;;;132.88;39.47;;;;;;;1.87;99.30;101460.91;5037721;28;20288;-72
2021/12/06 08:35:55;;;;;;;161.63;43.83;;;;;;;1.88;99.58;101466.16;5035405;28;20032;-73
2021/12/06 08:38:24;;;;;;;149.35;42.35;;;;;;;1.90;99.22;101464.56;5038952;28;20097;-72
2021/12/06 08:40:50;;;;;;;156.13;43.35;;;;;;;1.92;99.39;101475.81;5041973;28;20219;-72
2021/12/06 08:43:17;;;;;;;150.82;42.35;;;;;;;1.94;99.50;101487.88;5030050;28;21410;-72
2021/12/06 08:45:45;;;;;;;154.50;43.85;;;;;;;1.94;99.40;101493.03;5039893;28;20076;-72
2021/12/06 08:48:11;;;;;;;157.88;44.25;;;;;;;1.95;99.35;101493.13;5069370;28;20100;-72
2021/12/06 08:50:36;;;;;;;154.60;42.05;;;;;;;1.99;99.43;101499.41;5074777;28;20033;-73
2021/12/06 08:53:02;;;;;;;156.80;43.85;;;;;;;1.97;99.65;101499.28;5037966;28;20076;-73
2021/12/06 08:55:28;;;;;;;170.02;43.80;;;;;;;2.00;99.44;101496.94;5041972;28;20270;-73
2021/12/06 08:57:55;;;;;;;151.43;42.55;;;;;;;2.01;99.08;101493.53;5041775;28;20327;-72
2021/12/06 09:00:26;;;;;;;162.32;42.45;;;;;;;2.04;99.10;101501.50;5037804;28;20318;-73
2021/12/06 09:02:52;;;;;;;157.57;44.55;;;;;;;2.05;98.94;101495.53;5035688;28;20076;-72
2021/12/06 09:05:18;;;;;;;151.45;42.78;;;;;;;2.05;99.35;101500.69;5045519;28;20029;-72
2021/12/06 09:07:44;;;;;;;150.77;41.92;;;;;;;2.08;99.00;101502.59;5038004;28;20025;-72
2021/12/06 09:10:12;;;;;;;166.25;44.63;;;;;;;2.10;98.91;101503.59;5041271;28;20036;-72
2021/12/06 09:12:39;;;;;;;156.48;42.30;;;;;;;2.12;99.50;101511.41;5039251;28;20021;-73
2021/12/06 09:15:10;;;;;;;153.90;43.42;;;;;;;2.13;98.84;101506.38;5040006;28;20321;-73
2021/12/06 09:17:36;;;;;;;152.57;44.30;;;;;;;2.14;99.33;101503.00;5032904;28;20021;-72
2021/12/06 09:20:04;;;;;;;166.45;45.00;;;;;;;2.15;99.04;101503.91;5034699;28;20029;-72
2021/12/06 09:22:29;;;;;;;151.85;42.83;;;;;;;2.17;98.98;101505.81;5033412;28;20028;-72
2021/12/06 09:24:54;;;;;;;159.73;43.10;;;;;;;2.18;98.97;101507.56;5036072;28;20042;-73
2021/12/06 09:27:20;;;;;;;167.70;45.15;;;;;;;2.20;98.72;101500.88;5031959;28;20097;-73
2021/12/06 09:29:45;;;;;;;241.70;73.07;;;;;;;2.22;99.31;101509.56;5037076;28;20037;-73
2021/12/06 09:32:13;;;;;;;211.57;53.95;;;;;;;2.22;98.79;101507.00;5033619;28;20049;-73
2021/12/06 09:34:43;;;;;;;232.20;57.05;;;;;;;2.23;99.08;101513.00;5036043;28;20052;-72
2021/12/06 09:37:08;;;;;;;395.77;107.28;;;;;;;2.22;99.05;101514.69;5029481;28;20045;-72
2021/12/06 09:39:34;;;;;;;167.75;47.58;;;;;;;2.23;98.96;101506.22;5040900;28;20032;-72
2021/12/06 09:42:00;;;;;;;144.43;43.28;;;;;;;2.23;98.83;101511.34;5043414;28;20037;-72
2021/12/06 09:44:26;;;;;;;142.30;43.22;;;;;;;2.22;98.90;101499.28;5036228;28;20325;-72
2021/12/06 09:46:52;;;;;;;127.60;37.17;;;;;;;2.23;98.40;101500.16;5031440;28;20026;-72
2021/12/06 09:49:20;;;;;;;158.65;46.85;;;;;;;2.23;98.58;101501.06;5032534;28;20049;-72
2021/12/06 09:51:52;;;;;;;139.45;41.38;;;;;;;2.23;98.45;101505.28;5037456;28;20029;-72
2021/12/06 09:54:22;;;;;;;128.90;36.00;;;;;;;2.24;98.80;101502.81;5060468;28;20261;-72
2021/12/06 09:56:49;;;;;;;133.27;40.75;;;;;;;2.24;98.86;101513.13;5038290;28;20211;-72
2021/12/06 09:59:18;;;;;;;140.00;38.38;;;;;;;2.25;98.82;101514.91;5035207;28;20295;-72
2021/12/06 10:01:48;;;;;;;;;;;;;;;2.29;98.44;101507.41;5036303;28;20026;-72
2021/12/06 10:04:15;;;;;;;127.47;37.15;;;;;;;2.28;98.38;101508.22;5037855;28;19913;-72
2021/12/06 10:06:42;;;;;;;135.88;35.83;;;;;;;2.28;98.64;101503.94;5042601;28;20197;-72
2021/12/06 10:09:09;;;;;;;132.73;35.40;;;;;;;2.28;98.71;101500.50;5040120;28;20191;-74
2021/12/06 10:11:35;;;;;;;151.18;38.00;;;;;;;2.28;98.87;101497.91;5037221;28;20021;-72
2021/12/06 10:14:01;;;;;;;167.30;38.67;;;;;;;2.29;98.68;101489.41;5032750;28;20033;-72
2021/12/06 10:16:27;;;;;;;166.10;38.88;;;;;;;2.29;98.81;101482.59;5037872;28;20278;-72
2021/12/06 10:18:53;;;;;;;178.43;36.30;;;;;;;2.29;98.58;101474.88;5038664;28;20042;-72
2021/12/06 10:21:20;;;;;;;184.60;36.17;;;;;;;2.29;98.90;101474.88;5038740;28;20026;-72
2021/12/06 10:23:46;;;;;;;174.85;37.63;;;;;;;2.29;98.82;101471.41;5040844;28;20025;-72
2021/12/06 10:26:17;;;;;;;174.82;34.50;;;;;;;2.31;98.56;101464.69;5040753;28;20046;-72
2021/12/06 10:28:44;;;;;;;163.45;34.35;;;;;;;2.32;98.82;101454.50;5039706;28;20022;-72
2021/12/06 10:31:12;;;;;;;143.98;33.28;;;;;;;2.33;98.42;101463.09;5033898;28;20049;-72
2021/12/06 10:33:41;;;;;;;168.07;36.27;;;;;;;2.32;98.20;101464.78;5035469;28;20017;-72
2021/12/06 10:36:10;;;;;;;159.15;31.17;;;;;;;2.31;98.18;101456.97;5035148;28;20319;-72
2021/12/06 10:38:39;;;;;;;149.57;30.98;;;;;;;2.29;98.67;101464.59;5071560;28;20014;-72
2021/12/06 10:41:10;;;;;;;147.82;33.42;;;;;;;2.29;98.16;101471.41;5034074;28;20049;-72
2021/12/06 10:43:36;;;;;;;143.60;35.80;;;;;;;2.31;97.97;101467.25;5038597;28;20071;-72
2021/12/06 10:46:04;;;;;;;144.90;33.85;;;;;;;2.33;97.94;101458.88;5044549;28;20091;-72
2021/12/06 10:48:35;;;;;;;138.15;30.45;;;;;;;2.33;97.75;101453.72;5036489;28;20234;-72
2021/12/06 10:51:07;;;;;;;133.82;31.30;;;;;;;2.35;97.50;101436.72;5035784;28;20029;-72
2021/12/06 10:53:56;;;;;;;134.13;30.73;;;;;;;2.36;97.55;101435.00;5068522;28;20022;-72
2021/12/06 10:56:25;;;;;;;134.80;32.97;;;;;;;2.36;97.60;101425.63;5064800;28;20256;-71
2021/12/06 10:58:52;;;;;;;;;;;;;;;2.40;97.20;101421.56;5038704;28;20101;-70
2021/12/06 11:01:21;;;;;;;113.97;27.48;;;;;;;2.37;97.43;101416.22;5034421;28;20113;-71
2021/12/06 11:03:51;;;;;;;103.20;26.73;;;;;;;2.35;97.55;101400.72;5034062;28;20033;-71
2021/12/06 11:06:21;;;;;;;108.60;26.88;;;;;;;2.35;97.55;101392.09;5035345;28;20052;-71
2021/12/06 11:08:49;;;;;;;94.07;25.98;;;;;;;2.35;97.17;101402.41;5037417;28;20034;-71
2021/12/06 11:11:21;;;;;;;181.50;44.92;;;;;;;2.35;96.89;101397.25;5035922;28;20275;-70
2021/12/06 11:13:50;;;;;;;192.68;45.22;;;;;;;2.35;96.83;101397.25;5039477;28;20025;-71
2021/12/06 11:16:19;;;;;;;108.30;32.83;;;;;;;2.34;96.72;101401.47;5065365;28;20033;-71
2021/12/06 11:18:47;;;;;;;94.07;29.20;;;;;;;2.33;96.56;101393.66;5039531;28;20045;-74
2021/12/06 11:21:23;;;;;;;105.28;34.05;;;;;;;2.31;96.79;101390.13;5034227;28;20029;-74
2021/12/06 11:23:58;;;;;;;101.10;29.55;;;;;;;2.32;96.74;101391.88;5031480;28;20036;-74